Time;durP1;ratioP1;P1;durP2;ratioP2;P2;SDS_P1;SDS_P2;PMS_P1;PMS_P2;Temp;Humidity;BMP_temperature;BMP_pressure;BME280_temperature;BME280_humidity;BME280_pressure;Samples;Min_cycle;Max_cycle;Signal;HPM_P1;HPM_P2
2022/04/30 00:01:19;;;;;;;12.85;9.13;;;6.00;99.90;;;;;;5010034;28;20049;-77
2022/04/30 00:03:44;;;;;;;11.15;8.77;;;6.00;99.90;;;;;;5010557;28;20073;-77
2022/04/30 00:06:10;;;;;;;11.55;8.93;;;6.00;99.90;;;;;;5011176;28;20065;-77
2022/04/30 00:08:35;;;;;;;14.02;9.65;;;6.00;99.90;;;;;;5025091;28;20042;-77
2022/04/30 00:11:01;;;;;;;13.73;10.20;;;6.00;99.90;;;;;;5001925;28;20092;-78
2022/04/30 00:13:27;;;;;;;12.25;10.00;;;6.00;99.90;;;;;;5008928;28;20492;-77
2022/04/30 00:15:52;;;;;;;11.75;9.70;;;5.90;99.90;;;;;;5005830;28;20038;-77
2022/04/30 00:18:18;;;;;;;13.23;10.20;;;5.90;99.90;;;;;;5008150;28;20419;-77
2022/04/30 00:20:47;;;;;;;12.63;9.88;;;5.90;99.90;;;;;;4997208;28;20113;-77
2022/04/30 00:23:19;;;;;;;12.23;9.13;;;5.90;99.90;;;;;;5008753;28;20468;-77
2022/04/30 00:25:55;;;;;;;14.02;10.18;;;5.90;99.90;;;;;;5009480;28;20046;-77
2022/04/30 00:28:23;;;;;;;12.38;9.40;;;5.80;99.90;;;;;;5007505;28;20038;-77
2022/04/30 00:30:49;;;;;;;13.52;10.25;;;5.80;99.90;;;;;;5013899;28;20045;-77
2022/04/30 00:33:15;;;;;;;11.68;9.95;;;5.80;99.90;;;;;;5013050;28;20040;-77
2022/04/30 00:35:41;;;;;;;14.10;9.75;;;5.80;99.90;;;;;;5022583;28;20050;-77
2022/04/30 00:38:07;;;;;;;12.88;9.13;;;5.80;99.90;;;;;;5010493;28;20042;-77
2022/04/30 00:40:33;;;;;;;12.85;9.45;;;5.80;99.90;;;;;;5005156;28;20026;-77
2022/04/30 00:42:58;;;;;;;12.77;9.52;;;5.80;99.90;;;;;;4994893;28;20038;-77
2022/04/30 00:45:24;;;;;;;16.05;9.68;;;5.90;99.90;;;;;;4997069;28;20425;-77
2022/04/30 00:47:50;;;;;;;15.25;9.45;;;5.80;99.90;;;;;;5003577;28;20056;-77
2022/04/30 00:50:20;;;;;;;12.65;9.52;;;5.80;99.90;;;;;;5009791;28;20068;-77
2022/04/30 00:52:52;;;;;;;15.25;9.75;;;5.90;99.90;;;;;;5007280;28;20794;-77
2022/04/30 00:55:22;;;;;;;15.15;10.23;;;5.90;99.90;;;;;;4995119;28;20039;-77
2022/04/30 00:57:53;;;;;;;13.80;9.52;;;5.90;99.90;;;;;;5023344;28;20042;-77
2022/04/30 01:00:18;;;;;;;12.77;9.85;;;5.90;99.90;;;;;;5022742;28;20038;-77
2022/04/30 01:02:44;;;;;;;13.48;10.15;;;5.90;99.90;;;;;;5007564;28;20657;-77
2022/04/30 01:05:10;;;;;;;12.95;9.75;;;5.90;99.90;;;;;;4992970;28;20042;-77
2022/04/30 01:07:39;;;;;;;13.45;9.68;;;5.90;99.90;;;;;;5002427;28;20137;-77
2022/04/30 01:10:07;;;;;;;10.70;9.15;;;5.90;99.90;;;;;;4990555;28;20049;-77
2022/04/30 01:12:34;;;;;;;13.93;9.10;;;5.90;99.90;;;;;;4989698;28;20042;-77
2022/04/30 01:15:03;;;;;;;11.23;8.82;;;5.90;99.90;;;;;;5009054;28;20042;-77
2022/04/30 01:17:29;;;;;;;19.98;10.13;;;5.90;99.90;;;;;;5007237;28;20048;-77
2022/04/30 01:19:55;;;;;;;10.30;9.02;;;5.90;99.90;;;;;;5020011;28;20042;-76
2022/04/30 01:22:33;;;;;;;11.40;9.05;;;5.90;99.90;;;;;;5007194;28;20484;-77
2022/04/30 01:25:01;;;;;;;12.00;9.32;;;5.90;99.90;;;;;;5009203;28;20069;-77
2022/04/30 01:27:28;;;;;;;11.48;8.73;;;5.90;99.90;;;;;;5009736;28;20042;-77
2022/04/30 01:29:55;;;;;;;13.98;9.20;;;5.90;99.90;;;;;;5008920;28;20051;-77
2022/04/30 01:38:05;;;;;;;11.95;8.68;;;5.90;99.90;;;;;;5009134;28;20128;-77
2022/04/30 01:40:31;;;;;;;10.30;8.60;;;5.90;99.90;;;;;;5009338;28;20461;-77
2022/04/30 01:42:59;;;;;;;12.63;8.95;;;5.90;99.90;;;;;;5008299;28;20124;-77
2022/04/30 01:45:26;;;;;;;13.35;8.80;;;5.90;99.90;;;;;;5024550;28;20088;-77
2022/04/30 01:47:52;;;;;;;13.77;8.60;;;5.80;99.90;;;;;;5008240;28;20053;-77
2022/04/30 01:50:18;;;;;;;11.48;8.48;;;5.80;99.90;;;;;;5009632;28;20125;-77
2022/04/30 01:52:44;;;;;;;11.43;8.40;;;5.80;99.90;;;;;;5014716;28;20718;-77
2022/04/30 01:55:10;;;;;;;11.10;8.52;;;5.90;99.90;;;;;;5018252;28;20046;-77
2022/04/30 01:57:39;;;;;;;12.43;8.25;;;5.90;99.90;;;;;;5013274;28;20431;-77
2022/04/30 02:00:05;;;;;;;13.30;8.88;;;5.80;99.90;;;;;;5012223;28;20038;-77
2022/04/30 02:02:36;;;;;;;12.55;8.52;;;5.80;99.90;;;;;;5011900;28;20129;-77
2022/04/30 02:05:07;;;;;;;10.27;8.10;;;5.80;99.90;;;;;;5011499;28;20037;-77
2022/04/30 02:07:37;;;;;;;14.68;8.75;;;5.80;99.90;;;;;;5023253;28;20133;-77
2022/04/30 02:10:10;;;;;;;12.60;8.50;;;5.80;99.90;;;;;;5028468;28;20041;-76
2022/04/30 02:12:36;;;;;;;11.88;8.15;;;5.80;99.90;;;;;;4998403;28;20042;-77
2022/04/30 02:15:02;;;;;;;11.40;7.95;;;5.80;99.90;;;;;;5012164;28;20089;-77
2022/04/30 02:17:29;;;;;;;13.55;8.15;;;5.80;99.90;;;;;;5003298;28;20042;-77
2022/04/30 02:22:43;;;;;;;13.40;7.93;;;5.80;99.90;;;;;;5012024;28;20131;-77
2022/04/30 02:25:11;;;;;;;10.82;8.90;;;5.80;99.90;;;;;;4994515;28;20046;-77
2022/04/30 02:27:48;;;;;;;9.52;8.20;;;5.80;99.90;;;;;;4995767;28;20042;-77
2022/04/30 02:30:17;;;;;;;16.63;8.30;;;5.80;99.90;;;;;;5025350;28;20073;-76
2022/04/30 02:32:57;;;;;;;11.73;8.50;;;5.70;99.90;;;;;;5022411;28;20065;-77
2022/04/30 02:35:28;;;;;;;12.82;7.65;;;5.70;99.90;;;;;;4992776;28;20507;-76
2022/04/30 02:37:57;;;;;;;10.73;8.57;;;5.70;99.90;;;;;;4992009;28;20042;-77
2022/04/30 02:40:24;;;;;;;10.60;8.18;;;5.70;99.90;;;;;;5026684;28;20667;-76
2022/04/30 02:42:51;;;;;;;10.65;7.93;;;5.70;99.90;;;;;;5012336;28;20135;-77
2022/04/30 02:45:18;;;;;;;9.60;8.13;;;5.70;99.90;;;;;;5028361;28;20041;-77
2022/04/30 02:47:46;;;;;;;10.15;8.38;;;5.80;99.90;;;;;;5010946;28;20128;-77
2022/04/30 02:50:14;;;;;;;10.68;7.95;;;5.70;99.90;;;;;;5011257;28;20038;-77
2022/04/30 02:52:43;;;;;;;10.48;7.78;;;5.70;99.90;;;;;;5028654;28;20053;-77
2022/04/30 02:55:11;;;;;;;12.70;7.72;;;5.70;99.90;;;;;;5011488;28;20117;-77
2022/04/30 03:00:39;;;;;;;13.80;8.50;;;5.70;99.90;;;;;;5011237;28;20045;-77
2022/04/30 03:03:05;;;;;;;11.40;8.57;;;5.70;99.90;;;;;;5026361;28;20075;-77
2022/04/30 03:05:32;;;;;;;16.35;8.38;;;5.70;99.90;;;;;;5011736;28;20045;-77
2022/04/30 03:08:00;;;;;;;10.43;7.57;;;5.70;99.90;;;;;;5010268;28;20058;-77
2022/04/30 03:10:25;;;;;;;11.52;7.82;;;5.70;99.90;;;;;;5011156;28;20034;-77
2022/04/30 03:12:51;;;;;;;10.55;7.43;;;5.70;99.90;;;;;;5012601;28;20064;-77
2022/04/30 03:15:22;;;;;;;9.35;7.10;;;5.70;99.90;;;;;;5002874;28;20030;-77
2022/04/30 03:23:17;;;;;;;10.43;8.15;;;5.60;99.90;;;;;;5000783;28;20049;-77
2022/04/30 03:25:44;;;;;;;10.80;7.60;;;5.60;99.90;;;;;;5011829;28;20409;-77
2022/04/30 03:28:10;;;;;;;9.77;7.70;;;5.60;99.90;;;;;;5011564;28;20045;-77
2022/04/30 03:30:35;;;;;;;8.70;7.57;;;5.50;99.90;;;;;;5001957;28;20042;-79
2022/04/30 03:33:01;;;;;;;10.85;7.60;;;5.50;99.90;;;;;;4996845;28;20050;-76
2022/04/30 03:35:27;;;;;;;10.57;8.32;;;5.50;99.90;;;;;;5011761;28;20060;-79
2022/04/30 03:37:52;;;;;;;11.80;7.55;;;5.50;99.90;;;;;;5010678;28;20046;-77
2022/04/30 03:40:18;;;;;;;10.60;7.85;;;5.50;99.90;;;;;;5011362;28;20415;-77
2022/04/30 03:42:43;;;;;;;8.63;7.43;;;5.50;99.90;;;;;;5022886;28;20061;-77
2022/04/30 03:45:09;;;;;;;9.27;7.50;;;5.50;99.90;;;;;;5009675;28;20056;-77
2022/04/30 03:47:37;;;;;;;9.82;7.50;;;5.50;99.90;;;;;;5010370;28;20050;-77
2022/04/30 03:50:04;;;;;;;12.07;7.80;;;5.40;99.90;;;;;;5009567;28;20527;-77
2022/04/30 03:52:30;;;;;;;8.45;7.38;;;5.50;99.90;;;;;;5010817;28;20578;-77
2022/04/30 03:54:56;;;;;;;10.07;8.45;;;5.40;99.90;;;;;;5011100;28;20081;-77
2022/04/30 03:57:21;;;;;;;10.05;8.32;;;5.40;99.90;;;;;;5010428;28;20077;-78
2022/04/30 03:59:47;;;;;;;9.02;7.72;;;5.30;99.90;;;;;;5011384;28;20056;-78
2022/04/30 04:02:13;;;;;;;14.80;8.23;;;5.30;99.90;;;;;;5019413;28;20100;-78
2022/04/30 04:04:38;;;;;;;11.00;7.63;;;5.30;99.90;;;;;;4991947;28;20045;-78
2022/04/30 04:07:04;;;;;;;11.93;8.77;;;5.30;99.90;;;;;;5026566;28;20052;-78
2022/04/30 04:09:29;;;;;;;11.65;9.05;;;5.30;99.90;;;;;;4996790;28;20561;-77
2022/04/30 04:11:55;;;;;;;14.45;9.15;;;5.30;99.90;;;;;;4993840;28;20084;-77
2022/04/30 04:19:49;;;;;;;12.43;9.20;;;5.40;99.90;;;;;;5008130;28;20054;-78
2022/04/30 04:22:14;;;;;;;12.15;8.68;;;5.40;99.90;;;;;;5023433;28;20042;-78
2022/04/30 04:27:24;;;;;;;14.38;9.02;;;5.40;99.90;;;;;;5009168;28;20101;-78
2022/04/30 04:29:50;;;;;;;13.23;8.95;;;5.40;99.90;;;;;;5010186;28;20609;-78
2022/04/30 04:32:15;;;;;;;10.25;9.07;;;5.40;99.90;;;;;;5008974;28;20088;-78
2022/04/30 04:34:41;;;;;;;11.98;9.20;;;5.40;99.90;;;;;;5005433;28;20077;-77
2022/04/30 04:37:07;;;;;;;11.65;9.32;;;5.50;99.90;;;;;;5009522;28;20057;-78
2022/04/30 04:39:33;;;;;;;12.85;9.13;;;5.50;99.90;;;;;;5010332;28;20041;-78
2022/04/30 04:41:59;;;;;;;10.32;8.43;;;5.50;99.90;;;;;;5009778;28;20119;-78
2022/04/30 04:44:24;;;;;;;12.98;9.20;;;5.60;99.90;;;;;;5010113;28;20047;-78
2022/04/30 04:46:50;;;;;;;12.75;9.10;;;5.60;99.90;;;;;;5010533;28;20399;-78
2022/04/30 04:49:16;;;;;;;11.10;9.25;;;5.60;99.90;;;;;;4992955;28;20068;-78
2022/04/30 04:51:41;;;;;;;9.98;8.77;;;5.60;99.90;;;;;;4994202;28;20041;-78
2022/04/30 04:54:07;;;;;;;14.20;9.43;;;5.70;99.90;;;;;;5008971;28;20133;-78
2022/04/30 04:56:33;;;;;;;11.85;8.95;;;5.70;99.90;;;;;;5005738;28;20061;-78
2022/04/30 04:58:59;;;;;;;13.00;8.98;;;5.80;99.90;;;;;;5009950;28;20132;-78
2022/04/30 05:01:25;;;;;;;10.68;8.70;;;5.80;99.90;;;;;;4987734;28;20453;-78
2022/04/30 05:03:51;;;;;;;18.73;8.88;;;5.90;99.90;;;;;;5009921;28;20033;-78
2022/04/30 05:06:17;;;;;;;9.00;7.97;;;6.00;99.90;;;;;;5009591;28;20068;-78
2022/04/30 05:08:43;;;;;;;11.35;8.38;;;6.10;99.90;;;;;;4992766;28;20472;-77
2022/04/30 05:11:09;;;;;;;10.13;8.13;;;6.10;99.90;;;;;;5009598;28;20124;-78
2022/04/30 05:13:34;;;;;;;12.90;8.57;;;6.20;99.90;;;;;;5007145;28;20046;-77
2022/04/30 05:16:00;;;;;;;12.10;8.57;;;6.20;99.90;;;;;;5006834;28;20440;-77
2022/04/30 05:18:25;;;;;;;12.23;8.38;;;6.30;99.90;;;;;;4998018;28;20041;-78
2022/04/30 05:20:51;;;;;;;13.15;9.63;;;6.30;99.90;;;;;;5026218;28;20480;-78
2022/04/30 05:23:17;;;;;;;10.70;8.88;;;6.40;99.90;;;;;;5064059;22;20088;-76
2022/04/30 05:25:42;;;;;;;10.45;9.30;;;6.50;99.90;;;;;;5053974;28;20082;-76
2022/04/30 05:28:09;;;;;;;11.10;9.73;;;6.60;99.90;;;;;;5072736;28;20040;-76
2022/04/30 05:30:35;;;;;;;10.30;9.10;;;6.60;99.90;;;;;;5067362;28;20048;-76
2022/04/30 05:33:00;;;;;;;11.20;10.10;;;6.70;99.90;;;;;;5035279;28;20037;-76
2022/04/30 05:35:26;;;;;;;11.95;9.27;;;6.80;99.90;;;;;;5051245;28;20071;-76
2022/04/30 05:37:51;;;;;;;12.57;9.52;;;6.90;99.90;;;;;;5052817;28;20122;-76
2022/04/30 05:40:18;;;;;;;10.68;9.57;;;7.00;99.90;;;;;;5070177;28;20052;-76
2022/04/30 05:42:44;;;;;;;11.52;9.30;;;7.10;99.90;;;;;;5072722;28;20044;-76
2022/04/30 05:45:10;;;;;;;10.40;9.15;;;7.10;99.90;;;;;;5056278;28;20096;-75
2022/04/30 05:47:37;;;;;;;17.13;9.55;;;7.20;99.90;;;;;;5052378;28;20410;-75
2022/04/30 05:50:06;;;;;;;10.57;9.45;;;7.30;99.90;;;;;;5052080;28;20073;-75
2022/04/30 05:52:34;;;;;;;11.88;9.45;;;7.30;99.90;;;;;;5051001;28;20053;-75
2022/04/30 05:55:01;;;;;;;9.85;8.05;;;7.30;99.90;;;;;;5051614;28;20094;-75
2022/04/30 05:57:28;;;;;;;12.98;8.85;;;7.40;99.90;;;;;;5067497;28;20052;-75
2022/04/30 05:59:53;;;;;;;10.13;9.07;;;7.50;99.90;;;;;;5038433;28;20082;-76
2022/04/30 06:02:19;;;;;;;10.98;8.30;;;7.50;99.90;;;;;;5066972;28;20083;-76
2022/04/30 06:04:46;;;;;;;12.02;8.40;;;7.60;99.90;;;;;;5035326;28;20045;-75
2022/04/30 06:07:12;;;;;;;9.45;8.30;;;7.60;99.90;;;;;;5035395;28;20045;-75
2022/04/30 06:09:37;;;;;;;14.77;9.57;;;7.70;99.90;;;;;;5051821;28;20048;-75
2022/04/30 06:12:03;;;;;;;9.65;7.88;;;7.80;99.90;;;;;;5052105;28;20382;-75
2022/04/30 06:14:29;;;;;;;8.93;8.02;;;7.90;99.90;;;;;;5034721;28;20045;-76
2022/04/30 06:17:00;;;;;;;11.00;8.90;;;7.90;99.90;;;;;;5052932;28;20045;-75
2022/04/30 06:19:26;;;;;;;11.63;8.23;;;8.00;99.90;;;;;;5031822;28;20462;-75
2022/04/30 06:21:53;;;;;;;11.10;8.18;;;8.00;99.90;;;;;;5024786;28;20311;-75
2022/04/30 06:24:18;;;;;;;11.63;8.52;;;8.10;99.90;;;;;;5051607;28;20052;-75
2022/04/30 06:26:44;;;;;;;16.13;9.00;;;8.10;99.90;;;;;;5051916;28;20041;-75
2022/04/30 06:29:10;;;;;;;11.35;8.20;;;8.10;99.90;;;;;;5051577;28;20036;-75
2022/04/30 06:31:36;;;;;;;9.82;8.82;;;8.20;99.90;;;;;;5070035;28;20131;-75
2022/04/30 06:34:02;;;;;;;9.63;8.13;;;8.20;99.90;;;;;;5069317;28;20036;-75
2022/04/30 06:36:28;;;;;;;21.63;8.70;;;8.20;99.90;;;;;;5049891;28;20779;-75
2022/04/30 06:38:54;;;;;;;9.65;8.35;;;8.20;99.90;;;;;;5050731;28;20128;-75
2022/04/30 06:41:21;;;;;;;9.57;7.68;;;8.30;99.90;;;;;;5033982;28;20088;-75
2022/04/30 06:43:49;;;;;;;10.45;7.75;;;8.40;99.90;;;;;;5050584;28;20052;-74
2022/04/30 06:46:15;;;;;;;9.48;7.97;;;8.40;99.90;;;;;;5062602;28;20073;-75
2022/04/30 06:48:40;;;;;;;9.00;8.18;;;8.50;99.90;;;;;;5051292;28;20522;-74
2022/04/30 06:51:06;;;;;;;12.05;8.40;;;8.50;99.90;;;;;;5050674;28;20135;-74
2022/04/30 06:59:10;;;;;;;9.52;8.45;;;8.60;99.90;;;;;;5052598;28;20127;-75
2022/04/30 07:02:21;;;;;;;11.55;8.18;;;8.70;99.90;;;;;;5051057;28;20049;-75
2022/04/30 07:04:29;;;;;;;10.65;8.75;;;8.80;99.90;;;;;;5041267;28;20044;-75
2022/04/30 07:06:55;;;;;;;9.85;8.65;;;8.90;99.90;;;;;;5053012;28;20091;-75
2022/04/30 07:09:21;;;;;;;10.73;8.77;;;8.90;99.90;;;;;;5028668;28;20037;-75
2022/04/30 07:11:47;;;;;;;10.30;7.72;;;9.10;99.90;;;;;;5049779;28;20045;-75
2022/04/30 07:14:13;;;;;;;9.60;7.80;;;9.20;99.90;;;;;;5051503;28;20708;-75
2022/04/30 07:16:38;;;;;;;9.50;8.35;;;9.30;99.90;;;;;;5028064;28;20119;-75
2022/04/30 07:19:05;;;;;;;13.13;8.73;;;9.40;99.90;;;;;;5053592;28;20700;-75
2022/04/30 07:21:31;;;;;;;11.60;7.93;;;9.50;99.90;;;;;;5051040;28;20069;-76
2022/04/30 07:24:00;;;;;;;16.05;7.57;;;9.60;99.90;;;;;;5047873;28;20076;-75
2022/04/30 07:26:26;;;;;;;10.73;8.13;;;9.70;99.90;;;;;;5050300;28;20135;-75
2022/04/30 07:28:52;;;;;;;11.70;7.40;;;9.80;99.90;;;;;;5032152;28;20566;-75
2022/04/30 07:31:18;;;;;;;10.95;6.55;;;9.90;99.90;;;;;;5049683;28;20114;-74
2022/04/30 07:33:44;;;;;;;10.63;6.93;;;10.10;99.90;;;;;;5050158;28;20466;-75
2022/04/30 07:36:09;;;;;;;10.55;6.80;;;10.20;99.90;;;;;;5048783;28;20421;-75
2022/04/30 07:38:35;;;;;;;9.30;6.88;;;10.40;99.90;;;;;;5039460;28;20048;-75
2022/04/30 07:41:01;;;;;;;10.57;7.32;;;10.60;99.90;;;;;;5053616;28;20533;-75
2022/04/30 07:43:26;;;;;;;8.20;6.32;;;10.70;99.90;;;;;;5048142;28;20129;-75
2022/04/30 07:45:52;;;;;;;8.63;6.95;;;10.80;99.90;;;;;;5049777;28;20041;-75
2022/04/30 07:48:18;;;;;;;8.43;6.72;;;11.00;99.90;;;;;;5030930;28;20067;-75
2022/04/30 07:50:45;;;;;;;8.52;6.50;;;11.20;99.90;;;;;;5048989;28;20112;-75
2022/04/30 07:53:16;;;;;;;8.18;6.00;;;10.70;99.90;;;;;;5044347;28;20040;-75
2022/04/30 07:55:43;;;;;;;7.00;5.50;;;11.00;99.90;;;;;;5049951;28;20090;-75
2022/04/30 07:58:08;;;;;;;8.00;5.78;;;11.10;99.90;;;;;;5050291;28;20044;-75
2022/04/30 08:00:34;;;;;;;10.82;6.28;;;11.10;99.90;;;;;;5050447;28;20095;-75
2022/04/30 08:03:00;;;;;;;9.90;6.80;;;11.30;99.90;;;;;;5050085;28;20040;-75
2022/04/30 08:05:26;;;;;;;8.63;5.97;;;11.40;99.90;;;;;;5047796;28;20436;-75
2022/04/30 08:07:54;;;;;;;7.65;5.30;;;11.70;99.90;;;;;;5056152;28;20121;-75
2022/04/30 08:10:20;;;;;;;5.65;4.97;;;11.90;99.90;;;;;;5066777;28;20068;-75
2022/04/30 08:12:46;;;;;;;7.15;4.55;;;12.10;99.90;;;;;;5050129;28;20041;-74
2022/04/30 08:15:11;;;;;;;7.55;4.93;;;12.40;99.90;;;;;;5055649;28;20036;-74
2022/04/30 08:17:40;;;;;;;8.40;5.88;;;12.70;99.90;;;;;;5070355;28;20063;-75
2022/04/30 08:20:07;;;;;;;8.05;5.43;;;12.90;99.90;;;;;;5063943;28;20086;-75
2022/04/30 08:22:32;;;;;;;11.02;5.60;;;13.00;99.90;;;;;;5049712;28;20136;-75
2022/04/30 08:25:00;;;;;;;8.10;5.50;;;12.90;99.90;;;;;;5049911;28;20191;-75
2022/04/30 08:27:26;;;;;;;7.18;5.55;;;12.70;99.90;;;;;;5050491;28;20517;-75
2022/04/30 08:29:52;;;;;;;8.13;6.07;;;12.50;99.90;;;;;;5050620;28;20033;-75
2022/04/30 08:32:19;;;;;;;8.65;5.05;;;12.50;99.90;;;;;;5067594;28;20039;-75
2022/04/30 08:34:45;;;;;;;5.72;4.72;;;12.60;99.90;;;;;;5049069;28;20068;-75
2022/04/30 08:37:11;;;;;;;8.07;5.10;;;12.40;99.90;;;;;;5049065;28;20130;-75
2022/04/30 08:39:36;;;;;;;10.52;6.28;;;12.60;99.90;;;;;;5050182;28;20041;-75
2022/04/30 08:42:05;;;;;;;12.75;7.38;;;12.70;99.90;;;;;;5049524;28;20505;-75
2022/04/30 08:44:30;;;;;;;13.60;8.38;;;12.90;99.90;;;;;;5048932;28;20040;-75
2022/04/30 08:46:56;;;;;;;5.88;4.50;;;12.70;99.90;;;;;;5049801;28;20048;-75
2022/04/30 08:49:22;;;;;;;7.53;4.72;;;13.10;99.90;;;;;;5050216;28;20037;-75
2022/04/30 08:51:48;;;;;;;6.65;4.10;;;13.30;99.90;;;;;;5050029;28;20056;-75
2022/04/30 08:54:13;;;;;;;6.28;4.72;;;13.40;99.90;;;;;;5047342;28;20510;-75
2022/04/30 08:56:53;;;;;;;7.43;4.38;;;13.50;99.90;;;;;;5049963;28;20053;-75
2022/04/30 08:59:19;;;;;;;7.32;4.18;;;13.00;99.90;;;;;;5049110;28;20040;-75
2022/04/30 09:01:46;;;;;;;5.78;4.03;;;13.20;99.90;;;;;;5044707;28;20041;-75
2022/04/30 09:04:12;;;;;;;8.25;4.00;;;13.40;98.90;;;;;;5048554;28;20033;-75
2022/04/30 09:06:58;;;;;;;8.57;6.28;;;13.40;97.50;;;;;;5040310;28;20585;-75
2022/04/30 09:09:29;;;;;;;4.30;3.40;;;13.30;98.90;;;;;;5041685;28;20558;-75
2022/04/30 09:12:11;;;;;;;6.78;4.40;;;13.10;99.20;;;;;;5031928;28;20041;-75
2022/04/30 09:14:40;;;;;;;5.47;4.15;;;12.50;97.60;;;;;;5047822;28;20463;-75
2022/04/30 09:17:15;;;;;;;6.55;4.40;;;13.00;99.60;;;;;;5046331;28;20041;-75
2022/04/30 09:19:47;;;;;;;6.85;4.75;;;13.30;99.10;;;;;;5045938;28;20044;-74
2022/04/30 09:22:15;;;;;;;5.20;4.50;;;13.70;99.50;;;;;;5048073;28;20048;-74
2022/04/30 09:24:50;;;;;;;7.68;5.25;;;13.90;98.30;;;;;;5048175;28;20045;-74
2022/04/30 09:27:17;;;;;;;7.18;5.38;;;14.10;98.30;;;;;;5042896;28;20125;-74
2022/04/30 09:29:44;;;;;;;8.27;4.72;;;14.10;98.20;;;;;;5040194;28;20056;-74
2022/04/30 09:32:22;;;;;;;7.88;4.15;;;14.60;96.00;;;;;;5044648;28;20029;-74
2022/04/30 09:37:41;;;;;;;5.18;4.30;;;14.70;95.20;;;;;;5044682;28;20052;-74
2022/04/30 09:40:19;;;;;;;7.18;4.18;;;14.90;95.20;;;;;;5018270;28;20061;-74
2022/04/30 09:42:46;;;;;;;5.47;4.03;;;14.50;93.50;;;;;;5046231;28;20457;-75
2022/04/30 09:45:29;;;;;;;6.45;4.10;;;14.70;96.20;;;;;;5047984;28;20377;-73
2022/04/30 09:47:56;;;;;;;5.88;4.00;;;14.40;95.30;;;;;;5044416;28;20128;-73
2022/04/30 09:55:54;;;;;;;4.93;3.50;;;14.00;93.40;;;;;;5061864;28;20119;-73
2022/04/30 09:58:31;;;;;;;6.00;4.20;;;14.10;95.20;;;;;;5063708;28;20036;-74
2022/04/30 10:00:58;;;;;;;6.18;4.20;;;14.40;95.20;;;;;;5055703;28;20064;-74
2022/04/30 10:03:34;;;;;;;4.93;3.83;;;14.70;95.60;;;;;;5045329;28;20037;-74
2022/04/30 10:06:06;;;;;;;5.40;4.05;;;14.80;94.00;;;;;;5048014;28;20059;-74
2022/04/30 10:08:36;;;;;;;;;;;14.40;95.10;;;;;;5030575;28;20115;-73
2022/04/30 10:11:11;;;;;;;6.40;4.55;;;14.20;95.60;;;;;;5028190;28;19928;-74
2022/04/30 10:14:07;;;;;;;5.45;4.30;;;13.80;97.20;;;;;;5014822;28;20059;-74
2022/04/30 10:16:33;;;;;;;5.75;3.78;;;13.80;97.30;;;;;;5060056;28;20048;-74
2022/04/30 10:19:34;;;;;;;8.57;4.70;;;13.60;97.20;;;;;;5052756;28;20437;-74
2022/04/30 10:22:11;;;;;;;6.57;3.75;;;13.10;98.80;;;;;;5047551;28;20092;-74
2022/04/30 10:24:42;;;;;;;4.53;3.85;;;13.00;98.50;;;;;;5051220;28;20048;-74
2022/04/30 10:27:07;;;;;;;13.97;4.53;;;12.50;98.50;;;;;;5052870;28;20047;-74
2022/04/30 10:29:33;;;;;;;6.20;3.88;;;12.40;99.80;;;;;;5034597;28;20632;-74
2022/04/30 10:31:58;;;;;;;6.13;4.10;;;11.90;99.90;;;;;;5046323;28;20478;-73
2022/04/30 10:34:29;;;;;;;5.78;4.15;;;12.00;99.90;;;;;;5055510;28;20033;-74
2022/04/30 10:36:55;;;;;;;4.68;4.10;;;12.00;99.90;;;;;;5048921;28;20114;-75
2022/04/30 10:39:21;;;;;;;6.80;4.78;;;11.90;99.90;;;;;;5047405;28;20073;-74
2022/04/30 10:41:50;;;;;;;7.00;4.68;;;11.90;99.90;;;;;;5050195;28;20044;-74
2022/04/30 10:44:26;;;;;;;5.57;4.75;;;11.90;99.90;;;;;;5054899;28;20044;-74
2022/04/30 10:46:52;;;;;;;6.57;4.55;;;12.00;99.90;;;;;;5050835;28;20122;-74
2022/04/30 10:49:18;;;;;;;5.18;4.60;;;11.90;99.90;;;;;;5045885;28;20048;-74
2022/04/30 10:51:45;;;;;;;9.70;5.82;;;11.90;99.90;;;;;;5050555;28;20048;-74
2022/04/30 10:54:21;;;;;;;7.22;5.30;;;11.90;99.90;;;;;;5050663;28;20045;-74
2022/04/30 10:56:46;;;;;;;6.95;5.35;;;11.60;99.90;;;;;;5050763;28;20044;-74
2022/04/30 10:59:21;;;;;;;6.30;4.60;;;11.80;99.90;;;;;;5050977;28;20037;-74
2022/04/30 11:01:50;;;;;;;5.43;4.43;;;12.00;99.90;;;;;;5047757;28;20084;-74
2022/04/30 11:04:17;;;;;;;7.07;4.63;;;12.10;99.90;;;;;;5051820;28;20037;-74
2022/04/30 11:06:44;;;;;;;6.40;4.82;;;12.20;99.90;;;;;;5049708;28;20128;-74
2022/04/30 11:09:09;;;;;;;5.68;4.50;;;12.30;99.90;;;;;;5070612;28;20049;-74
2022/04/30 11:11:36;;;;;;;5.30;4.00;;;12.00;99.90;;;;;;5050188;28;20029;-74
2022/04/30 11:14:07;;;;;;;8.65;4.93;;;12.00;99.90;;;;;;5050854;28;20119;-74
2022/04/30 11:16:38;;;;;;;5.18;4.68;;;12.20;99.90;;;;;;5049242;28;20045;-74
2022/04/30 11:19:10;;;;;;;6.10;4.20;;;12.10;99.90;;;;;;5051071;28;20072;-74
2022/04/30 11:21:38;;;;;;;6.65;4.80;;;12.30;99.90;;;;;;5049080;28;20542;-74
2022/04/30 11:24:04;;;;;;;6.78;4.03;;;12.50;99.90;;;;;;5028470;28;20093;-74
2022/04/30 11:26:35;;;;;;;6.68;4.10;;;12.50;99.90;;;;;;5038130;28;20060;-74
2022/04/30 11:29:01;;;;;;;6.07;4.10;;;12.60;99.90;;;;;;5045306;28;20036;-74
2022/04/30 11:31:26;;;;;;;6.50;4.10;;;12.70;99.90;;;;;;5048714;28;20493;-74
2022/04/30 11:33:52;;;;;;;5.80;4.15;;;12.90;99.90;;;;;;5046184;28;20144;-74
2022/04/30 11:36:18;;;;;;;6.18;4.20;;;13.00;99.90;;;;;;5046551;28;20036;-74
2022/04/30 11:38:51;;;;;;;5.50;4.15;;;12.80;99.90;;;;;;5047576;28;20789;-74
2022/04/30 11:41:17;;;;;;;4.18;3.40;;;12.90;99.80;;;;;;5045957;28;20055;-74
2022/04/30 11:43:43;;;;;;;5.00;3.83;;;12.90;99.10;;;;;;5047840;28;20037;-74
2022/04/30 11:46:08;;;;;;;4.03;3.50;;;13.10;99.40;;;;;;5045827;28;20045;-74
2022/04/30 11:48:39;;;;;;;6.70;3.60;;;13.00;99.90;;;;;;5028076;28;20049;-74
2022/04/30 11:51:06;;;;;;;4.80;3.20;;;12.90;99.20;;;;;;5041536;28;20590;-74
2022/04/30 11:53:33;;;;;;;4.50;3.35;;;12.80;98.10;;;;;;5048961;28;20041;-74
2022/04/30 11:55:58;;;;;;;8.18;4.22;;;12.80;97.40;;;;;;5047815;28;20025;-74
2022/04/30 11:58:24;;;;;;;5.38;4.30;;;12.90;98.60;;;;;;5048097;28;20502;-74
2022/04/30 12:00:53;;;;;;;7.80;7.10;;;13.10;98.60;;;;;;5048916;28;20424;-74
2022/04/30 12:03:26;;;;;;;7.47;5.45;;;13.40;98.80;;;;;;5045827;28;20068;-74
2022/04/30 12:05:53;;;;;;;5.53;4.53;;;13.50;98.90;;;;;;5040598;28;20055;-74
2022/04/30 12:08:18;;;;;;;7.70;5.45;;;13.50;98.70;;;;;;5047458;28;20394;-74
2022/04/30 12:10:57;;;;;;;6.55;4.97;;;13.70;98.80;;;;;;5047335;28;20037;-74
2022/04/30 12:13:26;;;;;;;14.15;7.70;;;13.60;99.90;;;;;;5047473;28;20120;-74
2022/04/30 12:16:07;;;;;;;5.70;4.70;;;13.70;99.30;;;;;;5042639;28;20052;-74
2022/04/30 12:26:54;;;;;;;7.63;4.80;;;13.10;99.80;;;;;;5041156;28;20499;-74
2022/04/30 12:29:22;;;;;;;7.32;4.68;;;12.80;99.40;;;;;;5045000;28;20167;-74
2022/04/30 12:31:49;;;;;;;6.70;5.03;;;13.00;98.70;;;;;;5048169;28;20091;-74
2022/04/30 12:34:19;;;;;;;8.18;4.80;;;13.00;99.20;;;;;;5046662;28;20135;-74
2022/04/30 12:36:52;;;;;;;4.55;3.78;;;13.10;99.70;;;;;;5044756;28;20044;-74
2022/04/30 12:39:18;;;;;;;5.50;3.88;;;13.30;98.60;;;;;;5047147;28;20055;-74
2022/04/30 12:41:44;;;;;;;4.57;3.90;;;13.30;98.20;;;;;;5040997;28;20045;-74
2022/04/30 12:44:09;;;;;;;6.63;4.18;;;13.50;97.80;;;;;;5028982;28;20040;-74
2022/04/30 12:46:35;;;;;;;5.25;4.13;;;13.60;96.70;;;;;;5040268;28;20383;-74
2022/04/30 12:49:00;;;;;;;4.85;4.30;;;13.90;97.50;;;;;;5048078;28;20061;-75
2022/04/30 12:51:26;;;;;;;6.72;4.22;;;13.60;96.10;;;;;;5066372;28;20564;-74
2022/04/30 12:53:52;;;;;;;5.15;3.83;;;13.70;96.10;;;;;;5053722;28;20505;-74
2022/04/30 12:56:18;;;;;;;5.10;3.53;;;13.80;96.20;;;;;;5053449;28;20048;-74
2022/04/30 12:58:44;;;;;;;4.63;4.10;;;14.00;95.60;;;;;;5019635;28;20094;-74
2022/04/30 13:01:09;;;;;;;4.82;4.20;;;13.90;95.00;;;;;;5048139;28;20375;-74
2022/04/30 13:03:35;;;;;;;8.23;4.35;;;13.30;97.20;;;;;;5049402;28;20056;-74
2022/04/30 13:06:02;;;;;;;5.13;4.63;;;13.40;97.90;;;;;;5038753;28;20041;-74
2022/04/30 13:13:31;;;;;;;14.27;4.45;;;13.40;97.20;;;;;;5049237;28;20032;-75
2022/04/30 13:13:57;;;;;;;6.03;4.40;;;13.70;96.80;;;;;;5047273;28;20048;-74
2022/04/30 13:16:23;;;;;;;5.93;4.05;;;13.20;97.00;;;;;;5031782;28;20547;-74
2022/04/30 13:18:49;;;;;;;4.70;4.25;;;13.60;96.70;;;;;;5047098;28;20052;-74
2022/04/30 13:21:14;;;;;;;4.95;4.50;;;13.90;96.40;;;;;;5041550;28;20049;-74
2022/04/30 13:23:40;;;;;;;5.28;4.25;;;13.80;96.60;;;;;;5046266;28;20044;-74
2022/04/30 13:26:08;;;;;;;5.10;4.03;;;13.90;95.10;;;;;;5047689;28;20095;-74
2022/04/30 13:28:33;;;;;;;4.60;3.40;;;14.00;96.20;;;;;;5045818;28;20079;-74
2022/04/30 13:30:59;;;;;;;6.53;4.90;;;13.80;96.10;;;;;;5039598;28;20083;-74
2022/04/30 13:33:25;;;;;;;5.32;4.10;;;14.00;96.30;;;;;;5042945;28;20041;-74
2022/04/30 13:35:50;;;;;;;4.13;3.45;;;14.00;95.90;;;;;;5044114;28;20040;-75
2022/04/30 13:38:16;;;;;;;4.72;4.10;;;14.20;95.70;;;;;;5052930;28;20044;-74
2022/04/30 13:40:41;;;;;;;5.97;4.20;;;13.60;95.50;;;;;;5036688;28;20048;-75